Berlin Dahlem, Germany

11:40 AM CEST on August 20, 2014 (GMT +0200)
Tiergarten | Change Station
CLOSE
Current Station
Personal Weather Station
Location: Berlin, BERLIN
Elevation: 121 ft
Nearby Weather Stations

Elev 121 ft 52.52 °N, 13.32 °E | Updated 5 minutes ago

Mostly Cloudy
Mostly Cloudy
60.4 °F
Feels Like 60.4 °F
N
-
Wind Variable Wind from North

Today
High -- | Low -- °F
--% Chance of Precip.
Yesterday
High -- | Low -- °F
Precip. -- in
5:57 AM 8:21 PM
Waning Crescent, 23% visible
Pressure 29.95 in
Visibility 6.2 miles
Clouds Mostly Cloudy 2100 ft
Dew Point 48 °F
Humidity 69%
Rainfall -999.00 in
Snow Depth Not available.
UV 3 out of 12
Pollen Not available.
Air Quality Not available.
Flu Activity Not available.
METAR EDDT 200920Z 25013KT 9999 BKN021 15/08 Q1014 NOSIG

More Conditions Fewer Conditions

Pressure 29.95 in
Visibility 6.2 miles
Clouds Mostly Cloudy 2100 ft
Dew Point 48 °F
Humidity 69%
Rainfall -999.00 in
Snow Depth Not available.
UV 3 out of 12
Pollen Not available.
Air Quality Not available.
Flu Activity Not available.
METAR EDDT 200920Z 25013KT 9999 BKN021 15/08 Q1014 NOSIG

More Conditions Fewer Conditions

10-Day Weather Forecast

Almanac

Astronomy

Aug. 20, 2014 Rise Set
Actual Time 5:57 AM CEST 8:21 PM CEST
Civil Twilight 5:19 AM CEST 8:59 PM CEST
Nautical Twilight 4:31 AM CEST 9:47 PM CEST
Astronomical Twilight 3:34 AM CEST 10:43 PM CEST
Moon 1:08 AM CEST 5:07 PM CEST
Length of Visible Light 15h 39m
Length of Day
14h 24m
Tomorrow will be 3m 49s shorter.
Waning Crescent, 23% of the Moon is Illuminated
Today
Waning Crescent
Aug 25
New
Sep 2
First Quarter
Sep 8
Full
Sep 15
Last Quarter

Yesterday's Extremes

Country Highs Country Lows

Community

WunderPhotos

Upload Photos

1,745,604 photos uploaded!

Nearby

Snow Depth

Not available.

Earthquake Activity

City Distance Mag. Time & Date
No recent earthquake activity has been reported nearby.
Minimum magnitude displayed is 2.5.

Coastal Water Temperatures

Place Temperature
No Stations Reporting

Nearby Weather Stations